LFPM 301030Z AUTO 08014KT 050V130 CAVOK 23/06 Q1020

ElémentsDécodage
LFPM Station météo située sur l'aérodrome de MELUN Villaroche
301030Z émis le 30 du mois à 10h30 UTC
AUTO Bulletin édité par un automate
08014KT vent du 080°, 14 noeuds
050V130 vent de direction variable entre 050° et 130°
CAVOK Ceiling And Visibility OK
- Visibilité de 10 Km ou plus
- Pas de nuage au-dessous de 1500m ou au-dessous de l'altitude minimale du secteur la plus élevée (si>1500m) et absence de CB
- pas de temps présent significatif
23/06 température 23°C, point de rosée 06°C
 soit une humidité relative de 33%
Q1020 la pression au niveau de la mer (QNH) est de 1020 hPa